Latest Coastal Weather Observations for Smithton

IDV60701

Issued at 3:32 pm EDT Saturday 3 December 2016 (issued every 10 minutes, with the page automatically refreshed every 10 minutes)

About coastal observations | Map of coastal stations | Coastal observations for VIC | Marine services | Other Formats
Station Details ID: 091292 Name: SMITHTON AERODROME Lat: -40.83 Lon: 145.08 Height: 7.5 m
Data from the previous 72 hours. | See also: Recent months at Smithton
Date/Time
EDT
Temp
°C
Wind Pressure Rain since
9am
mm
Weather Cloud Vis
km
Sea
Height
m
Swell
Dir  Spd
kts
Gust
kts
hPa Trend Height
m
Period
s
Dir
03/03:30pm 18.3 W 10 15 1014.9 - 0.2 - - - - - - -
03/03:00pm 19.1 WNW 10 14 1015.2 - 0.2 - - - - - - -
03/02:30pm 18.3 WNW 13 18 1015.3 - 0.2 - - - - - - -
03/02:00pm 18.0 W 12 18 1015.4 - 0.2 - - - - - - -
03/01:30pm 18.5 WNW 9 13 1015.4 - 0.2 - - - - - - -
03/01:00pm 15.2 NW 4 8 1015.7 - 0.2 - - - - - - -
03/12:30pm 14.6 NNW 3 5 1016.0 - 0.2 - - - - - - -
03/12:00pm 13.5 WNW 9 13 1016.2 - 0.2 - - - - - - -
03/11:30am 13.1 W 12 16 1016.2 - 0.2 - - - - - - -
03/11:00am 15.3 W 8 12 1016.2 - 0.0 - - - - - - -
03/10:30am 14.5 WSW 9 11 1016.0 - 0.0 - - - - - - -
03/10:00am 12.6 WSW 12 16 1016.1 - 0.0 - - - - - - -
03/09:30am 13.7 SW 8 11 1015.9 - 0.0 - - - - - - -
03/09:00am 14.5 SSW 6 9 1015.6 - 0.0 - - - - - - -
03/08:30am 13.2 SW 3 6 1015.5 - 0.0 - - - - - - -
03/08:00am 12.0 SSW 4 5 1015.4 - 0.0 - - - - - - -
03/07:30am 9.8 S 1 3 1015.3 - 0.0 - - - - - - -
03/07:00am 8.5 S 1 3 1014.9 - 0.0 - - - - - - -
03/06:30am 6.1 S 4 5 1014.6 - 0.0 - - - - - - -
03/06:00am 5.7 S 5 6 1014.3 - 0.0 - - - - - - -
03/05:30am 6.5 S 4 5 1014.1 - 0.0 - - - - - - -
03/05:00am 7.2 SSW 5 6 1014.0 - 0.0 - - - - - - -
03/04:30am 7.7 SSW 5 7 1013.9 - 0.0 - - - - - - -
03/04:00am 8.2 CALM 0 0 1014.0 - 0.0 - - - - - - -
03/03:30am 8.6 SW 1 3 1014.2 - 0.0 - - - - - - -
03/03:00am 7.3 W 2 6 1014.5 - 0.0 - - - - - - -
03/02:30am 6.2 W 1 4 1014.5 - 0.0 - - - - - - -
03/02:00am 7.0 CALM 0 0 1014.4 - 0.0 - - - - - - -
03/01:30am 6.7 W 5 5 1014.5 - 0.0 - - - - - - -
03/01:00am 7.3 W 5 6 1014.7 - 0.0 - - - - - - -
03/12:30am 8.1 W 6 7 1014.7 - 0.0 - - - - - - -
03/12:00am 8.5 W 6 6 1014.8 - 0.0 - - - - - - -
 
Date/Time
EDT
Temp
°C
Wind Pressure Rain since
9am
mm
Weather Cloud Vis
km
Sea
Height
m
Swell
Dir  Spd
kts
Gust
kts
hPa Trend Height
m
Period
s
Dir
02/11:30pm 9.1 W 6 7 1014.8 - 0.0 - - - - - - -
02/11:00pm 8.1 W 7 7 1014.8 - 0.0 - - - - - - -
02/10:30pm 9.0 W 6 7 1014.7 - 0.0 - - - - - - -
02/10:00pm 10.3 WSW 7 8 1014.5 - 0.0 - - - - - - -
02/09:30pm 11.8 WSW 7 9 1014.2 - 0.0 - - - - - - -
02/09:00pm 12.2 WSW 8 10 1013.8 - 0.0 - - - - - - -
02/08:30pm 12.6 WSW 9 12 1013.5 - 0.0 - - - - - - -
02/08:00pm 13.0 W 13 19 1013.2 - 0.0 - - - - - - -
02/07:30pm 13.9 W 14 19 1012.6 - 0.0 - - - - - - -
02/07:00pm 14.5 W 16 21 1012.4 - 0.0 - - - - - - -
02/06:30pm 14.2 WSW 16 24 1012.1 - 0.0 - - - - - - -
02/06:00pm 15.2 WSW 17 23 1011.8 - 0.0 - - - - - - -
02/05:49pm 15.5 W 18 28 1011.8 - 0.0 - - - - - - -
02/05:30pm 16.7 W 18 26 1011.8 - 0.0 - - - - - - -
02/05:00pm 16.0 W 19 24 1011.7 - 0.0 - - - - - - -
02/04:30pm 15.5 W 17 24 1011.7 - 0.0 - - - - - - -
02/04:00pm 15.4 WSW 16 21 1011.4 - 0.0 - - - - - - -
02/03:30pm 17.3 W 16 21 1011.3 - 0.0 - - - - - - -
02/03:00pm 16.2 W 16 21 1011.1 - 0.0 - - - - - - -
02/02:30pm 16.3 WSW 21 27 1010.9 - 0.0 - - - - - - -
02/02:12pm 17.4 WSW 19 29 1010.8 - 0.0 - - - - - - -
02/02:00pm 16.2 WSW 20 27 1010.7 - 0.0 - - - - - - -
02/01:30pm 16.3 W 15 22 1010.4 - 0.0 - - - - - - -
02/01:00pm 16.7 SW 18 25 1010.2 - 0.0 - - - - - - -
02/12:30pm 16.5 WSW 19 26 1009.8 - 0.0 - - - - - - -
02/12:00pm 16.5 WSW 19 26 1009.6 - 0.0 - - - - - - -
02/11:30am 16.4 WSW 20 26 1009.3 - 0.0 - - - - - - -
02/11:00am 16.2 WSW 18 27 1009.1 - 0.0 - - - - - - -
02/10:30am 15.6 SW 19 24 1008.8 - 0.0 - - - - - - -
02/10:00am 15.3 WSW 16 24 1008.7 - 0.0 - - - - - - -
02/09:30am 13.6 WSW 20 30 1008.4 - 0.0 - - - - - - -
02/09:27am 14.1 WSW 18 30 1008.3 - 0.0 - - - - - - -
02/09:00am 14.1 WSW 13 19 1008.2 - 0.4 - - - - - - -
02/08:30am 13.5 WSW 12 17 1007.9 - 0.4 - - - - - - -
02/08:00am 12.5 WSW 11 14 1007.6 - 0.4 - - - - - - -
02/07:30am 12.0 WSW 14 21 1007.2 - 0.4 - - - - - - -
02/07:00am 12.8 WNW 12 20 1006.7 - 0.0 - - - - - - -
02/06:30am 12.0 WNW 7 10 1006.1 - 0.0 - - - - - - -
02/06:00am 10.3 W 1 3 1005.7 - 0.0 - - - - - - -
02/05:30am 10.3 W 5 7 1005.6 - 0.0 - - - - - - -
02/05:00am 10.3 W 3 5 1005.5 - 0.0 - - - - - - -
02/04:30am 10.1 W 3 6 1005.5 - 0.0 - - - - - - -
02/04:00am 9.7 CALM 0 0 1005.4 - 0.0 - - - - - - -
02/03:30am 9.9 CALM 0 0 1005.5 - 0.0 - - - - - - -
02/03:00am 9.5 W 3 3 1005.6 - 0.0 - - - - - - -
02/02:30am 9.6 W 4 5 1005.6 - 0.0 - - - - - - -
02/02:00am 9.8 W 6 7 1005.6 - 0.0 - - - - - - -
02/01:30am 7.9 W 6 7 1005.6 - 0.0 - - - - - - -
02/01:00am 8.8 WSW 7 7 1005.5 - 0.0 - - - - - - -
02/12:30am 9.2 WSW 4 5 1005.6 - 0.0 - - - - - - -
02/12:00am 9.9 WSW 4 4 1006.1 - 0.0 - - - - - - -
 
Date/Time
EDT
Temp
°C
Wind Pressure Rain since
9am
mm
Weather Cloud Vis
km
Sea
Height
m
Swell
Dir  Spd
kts
Gust
kts
hPa Trend Height
m
Period
s
Dir
01/11:30pm 10.8 WSW 4 4 1006.1 - 0.0 - - - - - - -
01/11:00pm 11.7 WSW 5 6 1006.5 - 0.0 - - - - - - -
01/10:30pm 11.8 WSW 6 6 1006.6 - 0.0 - - - - - - -
01/10:00pm 11.7 WSW 7 8 1006.7 - 0.0 - - - - - - -
01/09:30pm 12.0 WSW 6 7 1006.5 - 0.0 - - - - - - -
01/09:00pm 12.9 WSW 9 10 1006.4 - 0.0 - - - - - - -
01/08:30pm 13.5 WSW 7 9 1006.2 - 0.0 - - - - - - -
01/08:00pm 14.9 WSW 9 11 1006.0 - 0.0 - - - - - - -
01/07:30pm 15.9 WSW 11 15 1005.9 - 0.0 - - - - - - -
01/07:00pm 16.6 W 13 18 1005.7 - 0.0 - - - - - - -
01/06:30pm 18.2 W 18 22 1005.4 - 0.0 - - - - - - -
01/06:00pm 18.4 WNW 11 16 1005.0 - 0.0 - - - - - - -
01/05:30pm 19.4 NW 11 15 1004.6 - 0.0 - - - - - - -
01/05:00pm 19.0 NW 10 14 1004.8 - 0.0 - - - - - - -
01/04:30pm 20.7 WNW 8 13 1004.5 - 0.0 - - - - - - -
01/04:00pm 20.9 NW 8 12 1005.0 - 0.0 - - - - - - -
01/03:30pm 21.4 NW 8 11 1005.3 - 0.0 - - - - - - -
01/03:00pm 20.1 WNW 9 12 1005.6 - 0.0 - - - - - - -
01/02:30pm 19.3 N 6 9 1005.9 - 0.0 - - - - - - -
01/02:00pm 19.0 NNE 8 11 1006.2 - 0.0 - - - - - - -
01/01:30pm 18.7 NNE 10 12 1006.6 - 0.0 - - - - - - -
01/01:00pm 19.1 NNE 10 12 1007.0 - 0.0 - - - - - - -
01/12:30pm 18.8 N 11 14 1007.2 - 0.0 - - - - - - -
01/12:00pm 18.4 N 10 13 1007.4 - 0.0 - - - - - - -
01/11:30am 19.1 N 12 14 1007.5 - 0.0 - - - - - - -
01/11:00am 18.3 NNE 11 14 1007.5 - 0.0 - - - - - - -
01/10:30am 18.6 NNE 10 13 1007.7 - 0.0 - - - - - - -
01/10:00am 19.1 N 8 12 1007.7 - 0.0 - - - - - - -
01/09:30am 18.1 NNE 8 10 1008.0 - 0.0 - - - - - - -
01/09:00am 17.3 ENE 8 9 1008.1 - 0.0 - - - - - - -
01/08:30am 16.4 NE 4 5 1007.9 - 0.0 - - - - - - -
01/08:00am 15.7 E 5 6 1007.9 - 0.0 - - - - - - -
01/07:30am 14.3 SE 3 4 1007.9 - 0.0 - - - - - - -
01/07:00am 13.0 S 4 5 1007.9 - 0.0 - - - - - - -
01/06:30am 12.6 S 4 5 1008.0 - 0.0 - - - - - - -
01/06:00am 12.3 S 4 4 1008.1 - 0.0 - - - - - - -
01/05:30am 11.9 S 4 5 1008.1 - 0.0 - - - - - - -
01/05:00am 12.0 S 4 5 1008.0 - 0.0 - - - - - - -
01/04:30am 12.2 S 4 5 1007.9 - 0.0 - - - - - - -
01/04:00am 12.7 S 5 6 1008.3 - 0.0 - - - - - - -
01/03:30am 12.3 S 4 6 1008.6 - 0.0 - - - - - - -
01/03:00am 12.3 S 5 5 1008.7 - 0.0 - - - - - - -
01/02:30am 12.3 S 4 5 1009.1 - 0.0 - - - - - - -
01/02:00am 12.1 S 4 5 1009.3 - 0.0 - - - - - - -
01/01:30am 11.9 S 5 6 1009.5 - 0.0 - - - - - - -
01/01:00am 11.6 SSW 6 7 1009.9 - 0.0 - - - - - - -
01/12:30am 12.0 S 4 5 1009.9 - 0.0 - - - - - - -
01/12:00am 11.7 SSW 4 7 1010.2 - 0.0 - - - - - - -
 
Date/Time
EDT
Temp
°C
Wind Pressure Rain since
9am
mm
Weather Cloud Vis
km
Sea
Height
m
Swell
Dir  Spd
kts
Gust
kts
hPa Trend Height
m
Period
s
Dir
30/11:30pm 11.6 S 6 7 1010.2 - 0.0 - - - - - - -
30/11:00pm 12.0 S 7 8 1010.7 - 0.0 - - - - - - -
30/10:30pm 11.2 SSW 7 9 1010.8 - 0.0 - - - - - - -
30/10:00pm 11.5 SSW 7 8 1011.0 - 0.0 - - - - - - -
30/09:30pm 12.2 SW 6 7 1011.0 - 0.0 - - - - - - -
30/09:00pm 13.2 SW 5 6 1010.7 - 0.0 - - - - - - -
30/08:30pm 14.9 SW 6 7 1010.9 - 0.0 - - - - - - -
30/08:00pm 16.4 SW 7 9 1010.6 - 0.0 - - - - - - -
30/07:30pm 16.9 WSW 5 8 1010.5 - 0.0 - - - - - - -
30/07:00pm 16.8 NW 4 7 1010.4 - 0.0 - - - - - - -
30/06:30pm 17.8 NW 4 7 1010.2 - 0.0 - - - - - - -
30/06:00pm 17.1 NE 6 8 1009.9 - 0.0 - - - - - - -
30/05:30pm 17.2 NE 6 10 1010.1 - 0.0 - - - - - - -
30/05:00pm 16.8 N 5 7 1010.1 - 0.0 - - - - - - -
30/04:30pm 17.2 N 6 9 1009.9 - 0.0 - - - - - - -
30/04:00pm 17.2 N 8 10 1010.2 - 0.0 - - - - - - -

Other Formats:

Comma delimited format used in spreadsheet applications
http://www.bom.gov.au/fwo/IDV60701/IDV60701.94953.axf

JavaScript Object Notation format (JSON) in row-major order
http://www.bom.gov.au/fwo/IDV60701/IDV60701.94953.json